CST,Max TemperatureF,Mean TemperatureF,Min TemperatureF,Max Dew PointF,MeanDew PointF,Min DewpointF,Max Humidity, Mean Humidity, Min Humidity, Max Sea Level PressureIn, Mean Sea Level PressureIn, Min Sea Level PressureIn, Max VisibilityMiles, Mean VisibilityMiles, Min VisibilityMiles, Max Wind SpeedMPH, Mean Wind SpeedMPH, Max Gust SpeedMPH,PrecipitationIn, CloudCover, Events, WindDirDegrees
2012-2-1,57,39,21,25,20,14,78,55,27,30.17,30.11,30.07,10,10,9,8,4,,0.00,0,,174
2012-2-2,57,37,17,27,20,10,81,59,30,30.28,30.22,30.18,10,10,7,12,3,17,0.00,0,,88
2012-2-3,48,40,33,37,31,23,93,76,59,30.30,30.26,30.22,10,5,1,20,10,24,0.07,8,Rain-Snow,25
2012-2-4,34,31,26,31,29,22,100,89,78,30.41,30.31,30.23,10,2,0,25,17,24,0.10,7,Fog-Rain-Snow,356
2012-2-5,30,22,14,27,22,10,96,91,85,30.45,30.39,30.34,9,2,0,13,7,,0.04,6,Fog,318
2012-2-6,28,21,14,25,19,12,93,88,80,30.32,30.20,30.12,3,2,0,9,6,,0.00,2,Fog,166
2012-2-7,30,28,25,27,24,17,93,82,72,30.55,30.42,30.23,10,6,1,21,17,,0.00,8,Snow,350
2012-2-8,25,14,3,16,10,1,92,79,68,30.56,30.48,30.38,10,8,0,14,6,,0.00,3,Fog,246
2012-2-9,35,27,19,28,22,16,93,84,70,30.35,30.14,30.04,6,4,0,20,8,,0.00,4,Fog,200
2012-2-10,28,16,0,22,3,-9,78,61,51,30.68,30.38,30.11,10,10,7,25,18,32,0.00,1,,346
2012-2-11,16,7,-2,3,-5,-11,69,64,54,30.83,30.74,30.65,10,10,3,12,10,,0.00,0,,284
2012-2-12,28,10,-8,18,3,-13,83,68,53,30.67,30.41,30.06,10,10,9,15,8,,0.00,2,,167
2012-2-13,32,26,18,29,24,14,100,88,66,30.06,29.85,29.72,8,2,0,26,12,31,0.05,8,Fog-Snow,187
2012-2-14,32,20,8,26,15,3,92,82,79,29.87,29.81,29.77,4,2,0,13,7,,0.01,3,Fog,175
2012-2-15,37,27,17,31,25,12,100,83,75,30.15,29.95,29.84,10,2,0,16,5,,0.00,4,Fog,337
2012-2-16,35,27,19,28,21,16,88,76,61,30.28,30.21,30.10,10,9,4,15,7,,0.00,0,,181
2012-2-17,39,31,19,27,23,15,81,72,62,30.27,30.14,30.02,10,10,5,14,7,,0.00,0,,352
2012-2-18,36,24,12,22,15,9,88,72,48,30.32,30.24,30.17,10,10,6,5,3,,0.00,0,,259
2012-2-19,39,26,12,30,18,9,93,81,67,30.17,30.09,29.98,10,4,0,15,5,,0.00,0,Fog,157
2012-2-20,37,35,33,36,33,25,96,87,70,29.98,29.71,29.60,10,4,0,21,17,21,0.27,8,Fog-Rain,140
2012-2-21,45,39,33,32,30,25,89,77,58,29.83,29.74,29.64,10,10,8,18,13,23,0.00,2,,274
2012-2-22,54,44,33,39,33,28,92,76,53,29.60,29.49,29.37,10,10,9,13,6,,0.05,3,,236
2012-2-23,44,37,30,40,34,28,100,89,81,29.81,29.50,29.31,10,2,0,32,9,40,0.12,8,Fog-Rain-Snow,332
2012-2-24,36,30,23,28,23,14,82,73,61,30.27,30.03,29.80,10,9,2,22,18,30,0.00,4,Snow,315
2012-2-25,34,26,18,24,18,11,76,67,59,30.33,30.13,29.75,10,10,10,22,12,30,0.00,0,,119
2012-2-26,51,39,25,27,24,16,79,56,39,30.31,29.94,29.65,10,10,10,26,15,37,0.00,0,,277
2012-2-27,37,27,17,24,17,11,77,62,46,30.56,30.43,30.29,10,10,10,18,11,,0.00,2,,57
2012-2-28,53,44,35,49,40,23,94,84,61,30.27,29.68,29.26,10,4,1,30,14,40,0.44,8,Rain-Thunderstorm,138
2012-2-29,44,37,30,37,26,22,82,71,64,29.86,29.56,29.27,10,8,6,39,30,52,0.01,7,,272